createdAt,value
2019-03-31T00:02:15.704Z,34.67
2019-03-31T00:04:45.490Z,33.63
2019-03-31T00:07:15.221Z,32.93
2019-03-31T00:09:44.933Z,33.07
2019-03-31T00:12:14.963Z,32.37
2019-03-31T00:14:44.841Z,33.90
2019-03-31T00:17:14.558Z,33.40
2019-03-31T00:19:44.681Z,33.47
2019-03-31T00:22:14.698Z,33.53
2019-03-31T00:24:44.399Z,33.37
2019-03-31T00:27:14.106Z,31.57
2019-03-31T00:29:43.861Z,33.10
2019-03-31T00:32:13.571Z,32.90
2019-03-31T00:34:43.277Z,32.90
2019-03-31T00:37:13.092Z,33.23
2019-03-31T00:39:42.791Z,34.60
2019-03-31T00:42:12.993Z,37.20
2019-03-31T00:44:42.695Z,37.10
2019-03-31T00:47:12.408Z,38.80
2019-03-31T00:49:42.535Z,38.70
2019-03-31T00:52:12.327Z,39.10
2019-03-31T00:54:42.048Z,39.67
2019-03-31T00:57:12.170Z,40.60
2019-03-31T00:59:41.889Z,42.23
2019-03-31T01:02:15.333Z,42.20
2019-03-31T01:04:45.761Z,44.63
2019-03-31T01:07:15.914Z,46.97
2019-03-31T01:09:45.910Z,45.47
2019-03-31T01:12:15.997Z,46.93
2019-03-31T01:14:46.113Z,46.00
2019-03-31T01:17:18.823Z,48.27
2019-03-31T01:19:48.209Z,49.27
2019-03-31T01:22:17.987Z,47.43
2019-03-31T01:24:47.688Z,47.73
2019-03-31T01:27:18.875Z,48.17
2019-03-31T01:29:48.663Z,46.87
2019-03-31T01:32:18.822Z,48.93
2019-03-31T01:34:48.552Z,48.57
2019-03-31T01:37:20.237Z,49.00
2019-03-31T01:39:50.644Z,47.33
2019-03-31T01:42:20.624Z,49.03
2019-03-31T01:44:50.349Z,48.10
2019-03-31T01:47:20.515Z,48.23
2019-03-31T01:49:50.315Z,48.00
2019-03-31T01:52:20.085Z,48.00
2019-03-31T01:54:50.223Z,48.83
2019-03-31T01:57:20.222Z,49.70
2019-03-31T01:59:50.300Z,48.93
2019-03-31T02:02:27.728Z,49.67
2019-03-31T02:04:57.466Z,50.90
2019-03-31T02:07:27.172Z,51.37
2019-03-31T02:09:57.149Z,50.07
2019-03-31T02:12:26.832Z,51.77
2019-03-31T02:14:56.900Z,52.23
2019-03-31T02:17:26.698Z,50.73
2019-03-31T02:19:57.142Z,51.70
2019-03-31T02:22:26.910Z,52.53
2019-03-31T02:24:56.611Z,54.73
2019-03-31T02:27:26.424Z,54.17
2019-03-31T02:29:56.498Z,55.10
2019-03-31T02:32:26.944Z,54.17
2019-03-31T02:34:57.063Z,56.07
2019-03-31T02:37:26.848Z,54.87
2019-03-31T02:39:56.546Z,56.50
2019-03-31T02:42:26.265Z,57.77
2019-03-31T02:44:56.377Z,58.07
2019-03-31T02:47:26.089Z,57.83
2019-03-31T02:49:56.232Z,59.40
2019-03-31T02:52:26.017Z,58.67
2019-03-31T02:54:55.727Z,59.80
2019-03-31T02:57:26.120Z,59.47
2019-03-31T02:59:58.506Z,61.87
2019-03-31T03:02:41.303Z,60.13
2019-03-31T03:05:18.849Z,58.77
2019-03-31T03:07:39.411Z,57.23
2019-03-31T03:10:09.279Z,58.43
2019-03-31T03:12:42.187Z,57.23
2019-03-31T03:15:13.678Z,56.83
2019-03-31T03:17:43.407Z,55.00
2019-03-31T03:20:13.552Z,55.13
2019-03-31T03:22:43.782Z,57.87
2019-03-31T03:25:13.556Z,54.60
2019-03-31T03:27:43.684Z,54.87
2019-03-31T03:30:13.842Z,55.70
2019-03-31T03:33:12.135Z,51.67
2019-03-31T03:35:15.081Z,54.07
2019-03-31T03:37:44.840Z,52.63
2019-03-31T03:40:15.653Z,54.20
2019-03-31T03:42:45.363Z,52.07
2019-03-31T03:45:15.165Z,50.90
2019-03-31T03:47:45.265Z,51.90
2019-03-31T03:50:15.042Z,53.20
2019-03-31T03:52:44.747Z,52.03
2019-03-31T03:55:14.808Z,49.60
2019-03-31T03:57:44.600Z,50.13
2019-03-31T04:00:14.400Z,50.53
2019-03-31T04:02:44.161Z,50.77
2019-03-31T04:05:13.867Z,50.37
2019-03-31T04:07:44.042Z,52.90
2019-03-31T04:10:49.349Z,55.20
2019-03-31T04:13:19.139Z,55.83
2019-03-31T04:15:49.001Z,52.03
2019-03-31T04:18:18.764Z,52.57
2019-03-31T04:20:48.555Z,51.03
2019-03-31T04:23:18.650Z,53.50
2019-03-31T04:25:48.444Z,52.63
2019-03-31T04:28:18.612Z,53.33
2019-03-31T04:30:48.555Z,54.37
2019-03-31T04:33:18.320Z,52.30
2019-03-31T04:35:48.412Z,53.53
2019-03-31T04:38:18.169Z,51.17
2019-03-31T04:40:47.961Z,52.43
2019-03-31T04:43:18.048Z,48.20
2019-03-31T04:45:47.874Z,52.37
2019-03-31T04:48:17.651Z,52.13
2019-03-31T04:50:47.323Z,50.90
2019-03-31T04:53:17.025Z,53.47
2019-03-31T04:55:46.734Z,51.17
2019-03-31T04:58:16.761Z,51.00
2019-03-31T05:00:46.464Z,54.80
2019-03-31T05:03:16.503Z,51.33
2019-03-31T05:05:46.887Z,53.77
2019-03-31T05:08:16.602Z,53.43
2019-03-31T05:10:46.279Z,54.17
2019-03-31T05:13:15.992Z,52.63
2019-03-31T05:15:45.798Z,53.93
2019-03-31T05:18:15.915Z,55.10
2019-03-31T05:20:45.920Z,55.23
2019-03-31T05:23:15.896Z,52.77
2019-03-31T05:25:46.140Z,53.03
2019-03-31T05:28:16.231Z,55.43
2019-03-31T05:30:46.278Z,55.43
2019-03-31T05:33:16.655Z,51.97
2019-03-31T05:35:46.518Z,53.87
2019-03-31T05:38:16.231Z,52.73
2019-03-31T05:40:45.924Z,52.63
2019-03-31T05:43:15.926Z,51.40
2019-03-31T05:45:45.708Z,53.67
2019-03-31T05:48:15.867Z,52.97
2019-03-31T05:50:45.556Z,53.53
2019-03-31T05:53:15.383Z,53.60
2019-03-31T05:55:45.100Z,52.70
2019-03-31T05:58:14.858Z,51.97
2019-03-31T06:00:49.142Z,52.07
2019-03-31T06:03:19.659Z,54.50
2019-03-31T06:05:49.525Z,54.87
2019-03-31T06:08:19.298Z,50.40
2019-03-31T06:10:49.096Z,51.63
2019-03-31T06:13:18.799Z,54.10
2019-03-31T06:15:48.532Z,52.73
2019-03-31T06:18:18.326Z,53.80
2019-03-31T06:20:48.210Z,52.97
2019-03-31T06:23:18.536Z,52.70
2019-03-31T06:25:48.682Z,54.83
2019-03-31T06:28:18.397Z,54.87
2019-03-31T06:30:48.378Z,54.53
2019-03-31T06:33:18.075Z,55.77
2019-03-31T06:35:48.697Z,56.83
2019-03-31T06:38:18.757Z,56.90
2019-03-31T06:40:51.582Z,57.53
2019-03-31T06:43:21.406Z,54.67
2019-03-31T06:45:51.184Z,57.07
2019-03-31T06:48:20.893Z,58.37
2019-03-31T06:50:51.457Z,58.93
2019-03-31T06:53:21.550Z,56.17
2019-03-31T06:56:10.064Z,61.33
2019-03-31T06:58:39.772Z,59.63
2019-03-31T07:01:09.640Z,62.57
2019-03-31T07:03:39.571Z,61.43
2019-03-31T07:06:09.403Z,60.33
2019-03-31T07:08:39.195Z,61.80
2019-03-31T07:11:09.268Z,61.20
2019-03-31T07:13:39.403Z,60.30
2019-03-31T07:16:09.195Z,62.47
2019-03-31T07:18:38.915Z,60.67
2019-03-31T07:21:09.038Z,57.37
2019-03-31T07:23:39.143Z,55.13
2019-03-31T07:26:08.902Z,54.77
2019-03-31T07:28:38.712Z,52.47
2019-03-31T07:31:08.561Z,52.23
2019-03-31T07:33:38.424Z,52.80
2019-03-31T07:36:08.194Z,52.20
2019-03-31T07:38:39.246Z,48.77
2019-03-31T07:41:13.066Z,50.43
2019-03-31T07:43:40.953Z,50.70
2019-03-31T07:46:10.715Z,48.60
2019-03-31T07:48:40.458Z,45.87
2019-03-31T07:51:10.165Z,45.67
2019-03-31T07:53:39.890Z,44.67
2019-03-31T07:56:09.648Z,43.23
2019-03-31T07:58:39.448Z,42.30
2019-03-31T08:01:09.249Z,42.70
2019-03-31T08:03:38.985Z,42.57
2019-03-31T08:06:09.034Z,43.50
2019-03-31T08:08:39.148Z,40.47
2019-03-31T08:11:09.299Z,42.50
2019-03-31T08:13:39.395Z,42.47
2019-03-31T08:16:09.204Z,38.63
2019-03-31T08:18:39.364Z,37.60
2019-03-31T08:21:09.285Z,38.37
2019-03-31T08:23:39.341Z,38.47
2019-03-31T08:26:15.889Z,38.07
2019-03-31T08:28:45.742Z,37.13
2019-03-31T08:31:16.140Z,35.80
2019-03-31T08:33:46.508Z,36.53
2019-03-31T08:36:16.551Z,35.03
2019-03-31T08:38:46.566Z,35.57
2019-03-31T08:41:16.689Z,33.93
2019-03-31T08:43:49.444Z,35.57
2019-03-31T08:46:19.154Z,34.33
2019-03-31T08:48:49.246Z,33.10
2019-03-31T08:51:19.318Z,34.33
2019-03-31T08:53:49.088Z,33.43
2019-03-31T08:56:18.814Z,33.43
2019-03-31T08:58:49.792Z,32.23
2019-03-31T09:01:20.172Z,30.83
2019-03-31T09:03:50.204Z,33.13
2019-03-31T09:06:19.986Z,32.00
2019-03-31T09:08:49.770Z,32.67
2019-03-31T09:11:19.495Z,32.57
2019-03-31T09:13:50.614Z,32.30
2019-03-31T09:16:20.388Z,32.87
2019-03-31T09:18:50.834Z,33.87
2019-03-31T09:21:20.570Z,31.60
2019-03-31T09:23:50.458Z,33.03
2019-03-31T09:26:20.156Z,34.47
2019-03-31T09:28:50.189Z,31.50
2019-03-31T09:31:20.580Z,31.53
2019-03-31T09:33:50.352Z,26.10
2019-03-31T09:36:20.145Z,26.80
2019-03-31T09:38:49.873Z,27.90
2019-03-31T09:41:19.592Z,27.73
2019-03-31T09:43:49.295Z,27.80
2019-03-31T09:46:19.142Z,26.67
2019-03-31T09:48:49.213Z,25.77
2019-03-31T09:51:18.990Z,26.10
2019-03-31T09:53:48.841Z,26.73
2019-03-31T09:56:18.612Z,26.97
2019-03-31T09:58:48.729Z,26.33
2019-03-31T10:01:18.826Z,26.73
2019-03-31T10:03:52.070Z,25.37
2019-03-31T10:06:30.015Z,24.00
2019-03-31T10:08:53.958Z,25.50
2019-03-31T10:11:24.099Z,24.77
2019-03-31T10:13:54.084Z,25.07
2019-03-31T10:16:23.947Z,24.20
2019-03-31T10:18:53.973Z,23.47
2019-03-31T10:21:23.873Z,22.43
2019-03-31T10:23:53.934Z,23.30
2019-03-31T10:26:31.675Z,22.70
2019-03-31T10:28:55.606Z,23.20
2019-03-31T10:31:25.787Z,21.77
2019-03-31T10:33:56.133Z,20.70
2019-03-31T10:36:26.221Z,21.87
2019-03-31T10:38:56.083Z,20.13
2019-03-31T10:41:26.402Z,20.87
2019-03-31T10:43:56.280Z,20.13
2019-03-31T10:46:26.066Z,20.47
2019-03-31T10:48:56.105Z,19.80
2019-03-31T10:51:25.821Z,19.70
2019-03-31T10:53:55.559Z,20.87
2019-03-31T10:56:25.358Z,21.40
2019-03-31T10:58:55.357Z,20.53
2019-03-31T11:01:25.143Z,21.17
2019-03-31T11:03:54.851Z,19.57
2019-03-31T11:06:24.573Z,20.23
2019-03-31T11:08:54.685Z,21.43
2019-03-31T11:11:24.840Z,19.03
2019-03-31T11:13:54.555Z,19.87
2019-03-31T11:16:24.350Z,19.23
2019-03-31T11:18:54.328Z,18.73
2019-03-31T11:21:42.204Z,17.90
2019-03-31T11:24:11.991Z,16.67
2019-03-31T11:26:41.706Z,17.67
2019-03-31T11:29:11.496Z,17.20
2019-03-31T11:31:41.191Z,17.93
2019-03-31T11:34:11.356Z,17.83
2019-03-31T11:36:41.060Z,16.87
2019-03-31T11:39:10.772Z,16.63
2019-03-31T11:41:40.881Z,16.57
2019-03-31T11:44:11.036Z,16.53
2019-03-31T11:46:40.753Z,16.07
2019-03-31T11:49:10.817Z,16.40
2019-03-31T11:51:40.495Z,15.43
2019-03-31T11:54:10.586Z,16.83
2019-03-31T11:56:40.302Z,16.67
2019-03-31T11:59:10.021Z,16.13
2019-03-31T12:01:40.231Z,16.10
2019-03-31T12:04:10.391Z,16.97
2019-03-31T12:06:40.477Z,16.77
2019-03-31T12:09:10.200Z,16.93
2019-03-31T12:11:40.003Z,15.90
2019-03-31T12:14:09.804Z,16.63
2019-03-31T12:16:39.526Z,16.20
2019-03-31T12:19:09.234Z,16.67
2019-03-31T12:21:39.048Z,16.27
2019-03-31T12:24:08.838Z,17.03
2019-03-31T12:26:38.557Z,16.07
2019-03-31T12:29:08.631Z,15.90
2019-03-31T12:31:38.550Z,17.50
2019-03-31T12:34:08.291Z,17.03
2019-03-31T12:36:38.777Z,17.20
2019-03-31T12:39:09.244Z,17.43
2019-03-31T12:41:39.375Z,17.30
2019-03-31T12:44:09.553Z,17.33
2019-03-31T12:46:39.694Z,16.37
2019-03-31T12:49:09.474Z,17.07
2019-03-31T12:51:39.577Z,15.87
2019-03-31T12:54:09.363Z,16.53
2019-03-31T12:56:39.513Z,15.50
2019-03-31T12:59:09.305Z,14.97
2019-03-31T13:01:39.029Z,15.10
2019-03-31T13:04:08.812Z,15.20
2019-03-31T13:06:38.621Z,14.33
2019-03-31T13:09:09.274Z,15.37
2019-03-31T13:11:39.407Z,15.37
2019-03-31T13:14:09.213Z,14.07
2019-03-31T13:16:38.933Z,14.20
2019-03-31T13:19:08.759Z,13.07
2019-03-31T13:21:39.216Z,13.33
2019-03-31T13:24:08.951Z,14.67
2019-03-31T13:26:39.073Z,14.63
2019-03-31T13:29:09.187Z,14.30
2019-03-31T13:31:38.912Z,14.70
2019-03-31T13:34:09.171Z,14.57
2019-03-31T13:36:39.370Z,14.03
2019-03-31T13:39:10.020Z,14.53
2019-03-31T13:41:40.247Z,13.73
2019-03-31T13:44:10.405Z,13.90
2019-03-31T13:46:40.420Z,14.13
2019-03-31T13:49:11.004Z,14.30
2019-03-31T13:51:41.178Z,14.27
2019-03-31T13:54:11.243Z,15.77
2019-03-31T13:56:41.368Z,14.33
2019-03-31T13:59:11.497Z,15.90
2019-03-31T14:01:41.327Z,14.40
2019-03-31T14:04:11.057Z,15.20
2019-03-31T14:06:41.131Z,15.93
2019-03-31T14:09:11.435Z,15.73
2019-03-31T14:11:41.165Z,15.33
2019-03-31T14:14:11.233Z,16.20
2019-03-31T14:16:41.492Z,14.47
2019-03-31T14:19:12.996Z,16.13
2019-03-31T14:21:42.735Z,15.37
2019-03-31T14:24:12.595Z,14.83
2019-03-31T14:26:42.701Z,15.10
2019-03-31T14:29:12.586Z,16.00
2019-03-31T14:31:42.390Z,14.03
2019-03-31T14:34:12.367Z,15.93
2019-03-31T14:36:42.483Z,16.03
2019-03-31T14:39:12.285Z,15.83
2019-03-31T14:41:42.415Z,15.07
2019-03-31T14:44:12.693Z,16.23
2019-03-31T14:46:42.531Z,15.50
2019-03-31T14:49:12.331Z,15.67
2019-03-31T14:51:42.862Z,16.50
2019-03-31T14:54:12.991Z,14.60
2019-03-31T14:56:43.128Z,14.77
2019-03-31T14:59:13.035Z,14.17
2019-03-31T15:01:42.849Z,13.83
2019-03-31T15:04:12.571Z,13.43
2019-03-31T15:06:42.305Z,13.03
2019-03-31T15:09:12.291Z,13.63
2019-03-31T15:11:42.097Z,13.33
2019-03-31T15:14:12.191Z,13.27
2019-03-31T15:16:42.071Z,13.07
2019-03-31T15:19:11.951Z,12.23
2019-03-31T15:22:00.599Z,12.67
2019-03-31T15:24:30.421Z,12.07
2019-03-31T15:27:00.574Z,11.43
2019-03-31T15:29:30.298Z,9.93
2019-03-31T15:32:00.467Z,10.17
2019-03-31T15:34:30.493Z,9.40
2019-03-31T15:37:00.218Z,9.80
2019-03-31T15:39:30.288Z,10.20
2019-03-31T15:41:59.982Z,9.60
2019-03-31T15:44:30.050Z,9.03
2019-03-31T15:47:00.180Z,8.80
2019-03-31T15:49:29.924Z,8.33
2019-03-31T15:51:59.968Z,9.13
2019-03-31T15:54:29.756Z,8.83
2019-03-31T15:56:59.492Z,8.73
2019-03-31T15:59:29.568Z,8.50
2019-03-31T16:01:59.402Z,9.07
2019-03-31T16:04:29.490Z,8.20
2019-03-31T16:06:59.298Z,8.50
2019-03-31T16:09:28.544Z,8.87
2019-03-31T16:11:58.170Z,8.50
2019-03-31T16:14:27.343Z,8.27
2019-03-31T16:16:56.636Z,8.27
2019-03-31T16:19:26.122Z,8.23
2019-03-31T16:21:55.367Z,7.50
2019-03-31T16:24:43.598Z,7.20
2019-03-31T16:27:12.825Z,7.60
2019-03-31T16:29:41.982Z,7.17
2019-03-31T16:32:11.462Z,7.90
2019-03-31T16:34:40.621Z,7.70
2019-03-31T16:37:10.551Z,7.63
2019-03-31T16:39:40.189Z,7.03
2019-03-31T16:42:09.887Z,6.87
2019-03-31T16:44:39.057Z,7.03
2019-03-31T16:47:08.601Z,6.90
2019-03-31T16:49:37.756Z,6.67
2019-03-31T16:52:07.017Z,6.43
2019-03-31T16:54:36.518Z,6.57
2019-03-31T16:57:06.010Z,6.10
2019-03-31T16:59:35.237Z,6.40
2019-03-31T17:02:04.954Z,6.30
2019-03-31T17:04:34.247Z,5.70
2019-03-31T17:07:03.830Z,5.50
2019-03-31T17:09:33.326Z,5.40
2019-03-31T17:12:02.494Z,5.53
2019-03-31T17:14:31.668Z,5.70
2019-03-31T17:17:00.919Z,4.93
2019-03-31T17:19:30.075Z,5.47
2019-03-31T17:21:59.844Z,5.30
2019-03-31T17:24:29.319Z,5.80
2019-03-31T17:26:58.561Z,5.77
2019-03-31T17:29:27.799Z,5.87
2019-03-31T17:31:57.577Z,5.90
2019-03-31T17:34:26.813Z,5.07
2019-03-31T17:36:56.042Z,5.40
2019-03-31T17:39:25.620Z,5.27
2019-03-31T17:41:54.842Z,5.10
2019-03-31T17:44:24.105Z,5.20
2019-03-31T17:46:53.347Z,4.57
2019-03-31T17:49:22.532Z,4.60
2019-03-31T17:51:52.169Z,4.40
2019-03-31T17:54:21.691Z,5.17
2019-03-31T17:56:51.005Z,4.90
2019-03-31T17:59:20.489Z,4.30
2019-03-31T18:01:49.841Z,4.63
2019-03-31T18:04:19.024Z,4.10
2019-03-31T18:06:48.191Z,4.50
2019-03-31T18:09:17.401Z,4.60
2019-03-31T18:11:46.959Z,4.97
2019-03-31T18:14:16.499Z,4.37
2019-03-31T18:16:46.007Z,4.50
2019-03-31T18:19:15.151Z,4.43
2019-03-31T18:21:44.363Z,4.47
2019-03-31T18:24:13.850Z,5.30
2019-03-31T18:26:43.304Z,4.40
2019-03-31T18:29:12.579Z,4.33
2019-03-31T18:31:41.986Z,4.60
2019-03-31T18:34:11.297Z,4.70
2019-03-31T18:36:40.924Z,4.20
2019-03-31T18:39:10.257Z,4.67
2019-03-31T18:41:39.816Z,5.10
2019-03-31T18:44:09.040Z,4.37
2019-03-31T18:46:38.303Z,4.37
2019-03-31T18:49:07.544Z,4.70
2019-03-31T18:51:37.127Z,4.50
2019-03-31T18:54:24.328Z,4.20
2019-03-31T18:57:08.851Z,4.20
2019-03-31T19:00:12.356Z,4.27
2019-03-31T19:02:53.895Z,4.13
2019-03-31T19:05:44.994Z,4.00
2019-03-31T19:08:33.499Z,4.33
2019-03-31T19:11:21.759Z,4.40
2019-03-31T19:14:16.219Z,4.87
2019-03-31T19:17:03.113Z,4.67
2019-03-31T19:20:03.178Z,4.60
2019-03-31T19:22:50.074Z,4.90
2019-03-31T19:25:55.340Z,5.03
2019-03-31T19:28:46.422Z,4.53
2019-03-31T19:31:33.518Z,4.77
2019-03-31T19:34:09.298Z,5.07
2019-03-31T19:36:56.680Z,5.30
2019-03-31T19:39:47.652Z,5.20
2019-03-31T19:42:25.253Z,5.53
2019-03-31T19:45:07.586Z,5.33
2019-03-31T19:48:02.138Z,5.90
2019-03-31T19:50:46.172Z,5.87
2019-03-31T19:53:33.694Z,6.40
2019-03-31T19:56:20.630Z,6.37
2019-03-31T19:59:21.089Z,6.53
2019-03-31T20:01:57.421Z,5.90
2019-03-31T20:05:04.152Z,6.23
2019-03-31T20:08:01.488Z,6.00
2019-03-31T20:10:36.440Z,6.00
2019-03-31T20:13:23.440Z,6.60
2019-03-31T20:16:12.369Z,5.83
2019-03-31T20:19:00.597Z,6.07
2019-03-31T20:21:34.620Z,6.37
2019-03-31T20:24:21.531Z,6.17
2019-03-31T20:27:08.189Z,6.57
2019-03-31T20:29:42.156Z,6.50
2019-03-31T20:32:30.430Z,5.80
2019-03-31T20:35:13.434Z,5.60
2019-03-31T20:37:48.701Z,6.53
2019-03-31T20:40:36.908Z,6.57
2019-03-31T20:43:31.053Z,6.03
2019-03-31T20:46:04.034Z,6.57
2019-03-31T20:48:31.444Z,6.40
2019-03-31T20:51:00.617Z,5.67
2019-03-31T20:53:29.918Z,6.20
2019-03-31T20:55:59.078Z,6.00
2019-03-31T20:58:28.685Z,6.93
2019-03-31T21:00:57.873Z,6.00
2019-03-31T21:03:27.103Z,5.90
2019-03-31T21:05:56.357Z,5.83
2019-03-31T21:08:25.954Z,5.77
2019-03-31T21:10:55.374Z,6.03
2019-03-31T21:13:25.002Z,5.93
2019-03-31T21:15:54.261Z,6.27
2019-03-31T21:18:23.429Z,5.90
2019-03-31T21:20:52.944Z,6.13
2019-03-31T21:23:22.428Z,5.30
2019-03-31T21:25:51.941Z,5.93
2019-03-31T21:28:21.119Z,5.87
2019-03-31T21:30:50.386Z,5.97
2019-03-31T21:33:19.685Z,6.30
2019-03-31T21:35:48.948Z,5.73
2019-03-31T21:38:18.618Z,6.20
2019-03-31T21:40:47.881Z,5.73
2019-03-31T21:43:17.040Z,5.30
2019-03-31T21:45:47.310Z,5.60
2019-03-31T21:48:16.654Z,5.87
2019-03-31T21:50:52.438Z,5.93
2019-03-31T21:53:21.951Z,5.60
2019-03-31T21:55:51.167Z,5.30
2019-03-31T21:58:23.596Z,5.80
2019-03-31T22:01:05.547Z,5.67
2019-03-31T22:03:35.138Z,5.73
2019-03-31T22:06:04.552Z,4.93
2019-03-31T22:08:33.786Z,5.40
2019-03-31T22:11:03.236Z,5.10
2019-03-31T22:13:39.036Z,5.13
2019-03-31T22:16:08.269Z,5.63
2019-03-31T22:18:37.528Z,5.30
2019-03-31T22:21:07.992Z,5.57
2019-03-31T22:23:37.252Z,5.13
2019-03-31T22:26:06.407Z,4.60
2019-03-31T22:28:39.963Z,4.83
2019-03-31T22:31:09.233Z,4.63
2019-03-31T22:33:38.831Z,4.57
2019-03-31T22:36:23.819Z,4.67
2019-03-31T22:38:53.607Z,4.97
2019-03-31T22:41:24.955Z,4.70
2019-03-31T22:43:54.132Z,4.00
2019-03-31T22:46:23.273Z,4.60
2019-03-31T22:48:52.769Z,4.57
2019-03-31T22:51:22.058Z,4.13
2019-03-31T22:53:51.579Z,4.60
2019-03-31T22:56:21.047Z,3.60
2019-03-31T22:58:50.586Z,4.07
2019-03-31T23:01:19.801Z,4.23
2019-03-31T23:03:49.403Z,4.10
2019-03-31T23:06:18.761Z,3.50
2019-03-31T23:08:47.970Z,3.93
2019-03-31T23:11:17.517Z,3.77
2019-03-31T23:13:47.093Z,3.67
2019-03-31T23:16:16.335Z,3.80
2019-03-31T23:18:45.512Z,3.70
2019-03-31T23:21:15.023Z,3.80
2019-03-31T23:23:44.243Z,3.40
2019-03-31T23:26:13.659Z,2.90
2019-03-31T23:28:49.371Z,3.00
2019-03-31T23:31:18.961Z,3.17
2019-03-31T23:33:48.170Z,3.37
2019-03-31T23:36:17.745Z,3.10
2019-03-31T23:38:47.262Z,3.43
2019-03-31T23:41:16.439Z,3.63
2019-03-31T23:43:45.595Z,3.00
2019-03-31T23:46:14.821Z,3.23
2019-03-31T23:48:44.292Z,3.33
2019-03-31T23:51:13.707Z,3.23
2019-03-31T23:53:42.855Z,3.13
2019-03-31T23:56:12.317Z,3.00
2019-03-31T23:58:41.589Z,2.63
